Time;durP1;ratioP1;P1;durP2;ratioP2;P2;SDS_P1;SDS_P2;PMS_P1;PMS_P2;Temp;Humidity;BMP_temperature;BMP_pressure;BME280_temperature;BME280_humidity;BME280_pressure;Samples;Min_cycle;Max_cycle;Signal;HPM_P1;HPM_P2
2024/03/07 00:00:17;;;;;;;42.57;27.80;;;7.90;99.90;;;;;;5035154;28;20297;-68
2024/03/07 00:02:44;;;;;;;39.20;27.47;;;7.90;99.90;;;;;;5034904;28;20554;-69
2024/03/07 00:05:12;;;;;;;46.07;29.10;;;7.90;99.90;;;;;;5035363;28;20425;-67
2024/03/07 00:07:39;;;;;;;41.20;26.47;;;7.80;99.90;;;;;;5033840;28;20436;-67
2024/03/07 00:10:07;;;;;;;46.77;29.10;;;7.80;99.90;;;;;;5034603;28;20467;-68
2024/03/07 00:12:36;;;;;;;44.03;26.43;;;7.70;99.90;;;;;;5035182;28;20437;-69
2024/03/07 00:15:12;;;;;;;40.37;26.30;;;7.70;99.90;;;;;;5034136;28;20443;-69
2024/03/07 00:17:39;;;;;;;47.50;26.67;;;7.70;99.90;;;;;;5036408;28;20844;-68
2024/03/07 00:20:09;;;;;;;42.17;25.63;;;7.60;99.90;;;;;;5034362;28;20529;-68
2024/03/07 00:22:35;;;;;;;38.20;24.77;;;7.60;99.90;;;;;;5035483;28;20428;-69
2024/03/07 00:25:01;;;;;;;42.20;28.20;;;7.60;99.90;;;;;;5034240;28;20460;-68
2024/03/07 00:27:27;;;;;;;44.03;26.33;;;7.50;99.90;;;;;;5035075;28;20498;-68
2024/03/07 00:29:53;;;;;;;40.17;27.43;;;7.50;99.90;;;;;;5034884;28;20432;-68
2024/03/07 00:32:23;;;;;;;38.80;26.13;;;7.50;99.90;;;;;;5035107;28;20636;-68
2024/03/07 00:34:49;;;;;;;37.50;25.33;;;7.40;99.90;;;;;;5034371;28;20429;-69
2024/03/07 00:37:16;;;;;;;42.00;24.83;;;7.40;99.90;;;;;;5034471;28;20488;-68
2024/03/07 00:39:43;;;;;;;39.20;25.43;;;7.40;99.90;;;;;;5035550;28;20471;-68
2024/03/07 00:42:09;;;;;;;41.60;26.43;;;7.30;99.90;;;;;;5034650;28;21111;-67
2024/03/07 00:44:35;;;;;;;43.20;28.43;;;7.30;99.90;;;;;;5034333;28;20446;-68
2024/03/07 00:47:04;;;;;;;41.40;28.57;;;7.30;99.90;;;;;;5033931;28;20536;-68
2024/03/07 00:49:30;;;;;;;45.93;27.93;;;7.30;99.90;;;;;;5035126;28;20441;-67
2024/03/07 00:51:57;;;;;;;44.30;26.40;;;7.20;99.90;;;;;;5034430;28;21091;-68
2024/03/07 00:54:23;;;;;;;41.40;26.13;;;7.20;99.90;;;;;;5033719;28;20433;-68
2024/03/07 00:56:49;;;;;;;39.80;25.70;;;7.20;99.90;;;;;;5033864;28;20943;-67
2024/03/07 00:59:17;;;;;;;40.03;26.40;;;7.20;99.90;;;;;;5035231;28;20198;-68
2024/03/07 01:01:43;;;;;;;42.87;27.30;;;7.20;99.90;;;;;;5034001;28;20205;-69
2024/03/07 01:04:09;;;;;;;43.00;28.53;;;7.10;99.90;;;;;;5034363;28;20520;-69
2024/03/07 01:06:39;;;;;;;40.77;25.33;;;7.10;99.90;;;;;;5035316;28;20272;-67
2024/03/07 01:09:04;;;;;;;40.57;26.37;;;7.10;99.90;;;;;;5033893;28;20184;-67
2024/03/07 01:11:30;;;;;;;44.33;27.57;;;7.10;99.90;;;;;;5035095;28;20434;-67
2024/03/07 01:13:56;;;;;;;44.50;26.60;;;7.10;99.90;;;;;;5033256;28;20727;-68
2024/03/07 01:16:25;;;;;;;40.17;26.67;;;7.10;99.90;;;;;;5033733;28;20240;-69
2024/03/07 01:18:51;;;;;;;39.47;27.60;;;7.10;99.90;;;;;;5032439;28;20456;-69
2024/03/07 01:21:16;;;;;;;42.77;26.33;;;7.00;99.90;;;;;;5034160;28;20549;-69
2024/03/07 01:23:42;;;;;;;40.77;26.20;;;7.00;99.90;;;;;;5034516;28;20193;-67
2024/03/07 01:26:08;;;;;;;37.20;26.00;;;7.00;99.90;;;;;;5033084;28;20273;-67
2024/03/07 01:28:34;;;;;;;41.07;28.10;;;7.00;99.90;;;;;;5034168;28;20197;-67
2024/03/07 01:31:00;;;;;;;38.60;26.00;;;7.00;99.90;;;;;;5033846;28;20425;-69
2024/03/07 01:33:27;;;;;;;40.07;27.13;;;7.00;99.90;;;;;;5034441;28;20177;-70
2024/03/07 01:35:52;;;;;;;41.90;25.83;;;7.00;99.90;;;;;;5032204;28;20193;-67
2024/03/07 01:38:18;;;;;;;40.10;26.23;;;7.00;99.90;;;;;;5033658;28;21092;-68
2024/03/07 01:40:44;;;;;;;40.60;24.23;;;6.90;99.90;;;;;;5033833;28;20221;-67
2024/03/07 01:43:10;;;;;;;38.27;25.10;;;7.00;99.90;;;;;;5033910;28;20521;-67
2024/03/07 01:45:37;;;;;;;42.40;25.17;;;6.90;99.90;;;;;;5034115;28;20576;-69
2024/03/07 01:48:09;;;;;;;42.20;25.77;;;6.90;99.90;;;;;;5031975;28;20551;-69
2024/03/07 01:50:38;;;;;;;41.73;27.80;;;6.90;99.90;;;;;;5033512;28;20571;-68
2024/03/07 01:53:09;;;;;;;37.30;24.77;;;6.80;99.90;;;;;;5033201;28;21008;-67
2024/03/07 01:55:36;;;;;;;43.13;25.47;;;6.80;99.90;;;;;;5033356;28;20512;-69
2024/03/07 01:58:04;;;;;;;40.20;26.30;;;6.80;99.90;;;;;;5033119;28;20444;-67
2024/03/07 02:00:31;;;;;;;40.50;25.50;;;6.70;99.90;;;;;;5033317;28;20465;-69
2024/03/07 02:02:56;;;;;;;39.40;25.00;;;6.70;99.90;;;;;;5033331;28;20433;-68
2024/03/07 02:05:23;;;;;;;45.43;26.90;;;6.70;99.90;;;;;;5033596;28;20784;-67
2024/03/07 02:07:49;;;;;;;52.47;30.27;;;6.60;99.90;;;;;;5032597;28;20444;-68
2024/03/07 02:10:16;;;;;;;45.90;28.23;;;6.60;99.90;;;;;;5033161;28;20817;-67
2024/03/07 02:12:42;;;;;;;86.87;31.13;;;6.60;99.90;;;;;;5033835;28;20424;-69
2024/03/07 02:15:08;;;;;;;59.37;30.93;;;6.60;99.90;;;;;;5033159;28;20536;-69
2024/03/07 02:17:35;;;;;;;76.07;27.27;;;6.60;99.90;;;;;;5032052;28;20460;-68
2024/03/07 02:20:01;;;;;;;60.90;28.57;;;6.50;99.90;;;;;;5032772;28;20475;-67
2024/03/07 02:22:27;;;;;;;59.37;26.77;;;6.50;99.90;;;;;;5032884;28;20495;-68
2024/03/07 02:24:53;;;;;;;119.20;29.93;;;6.50;99.90;;;;;;5033058;28;20244;-68
2024/03/07 02:27:18;;;;;;;70.77;26.30;;;6.50;99.90;;;;;;5031592;28;20975;-68
2024/03/07 02:29:44;;;;;;;88.57;27.47;;;6.50;99.90;;;;;;5035906;28;20431;-68
2024/03/07 02:32:11;;;;;;;75.70;29.40;;;6.50;99.90;;;;;;5036757;28;20269;-70
2024/03/07 02:34:37;;;;;;;122.90;27.73;;;6.50;99.90;;;;;;5035782;28;20194;-69
2024/03/07 02:37:02;;;;;;;72.73;27.70;;;6.40;99.90;;;;;;5035505;28;20428;-70
2024/03/07 02:39:28;;;;;;;88.53;27.10;;;6.40;99.90;;;;;;5035740;28;20224;-69
2024/03/07 02:41:54;;;;;;;91.80;26.33;;;6.40;99.90;;;;;;5036382;28;20206;-68
2024/03/07 02:44:20;;;;;;;78.43;26.90;;;6.30;99.90;;;;;;5036882;28;21281;-68
2024/03/07 02:46:46;;;;;;;77.80;27.63;;;6.30;99.90;;;;;;5035688;28;20329;-68
2024/03/07 02:49:14;;;;;;;108.97;27.40;;;6.30;99.90;;;;;;5037272;28;20733;-68
2024/03/07 02:51:41;;;;;;;90.60;25.17;;;6.30;99.90;;;;;;5035659;28;20428;-69
2024/03/07 02:54:08;;;;;;;70.27;25.13;;;6.30;99.90;;;;;;5036438;28;20445;-68
2024/03/07 02:56:33;;;;;;;62.70;25.53;;;6.20;99.90;;;;;;5035639;28;20436;-68
2024/03/07 02:58:59;;;;;;;58.63;25.50;;;6.20;99.90;;;;;;5035768;28;20433;-67
2024/03/07 03:01:25;;;;;;;56.93;24.53;;;6.10;99.90;;;;;;5036233;28;20222;-67
2024/03/07 03:03:51;;;;;;;90.60;24.13;;;6.10;99.90;;;;;;5036284;28;20208;-69
2024/03/07 03:06:19;;;;;;;45.07;23.00;;;6.10;99.90;;;;;;5036079;28;20425;-69
2024/03/07 03:08:46;;;;;;;60.10;25.13;;;6.10;99.90;;;;;;5034971;28;20433;-68
2024/03/07 03:11:13;;;;;;;67.57;24.07;;;6.10;99.90;;;;;;5035967;28;20517;-69
2024/03/07 03:13:43;;;;;;;68.73;24.40;;;6.10;99.90;;;;;;5035237;28;20961;-68
2024/03/07 03:16:09;;;;;;;57.43;23.90;;;6.10;99.90;;;;;;5035754;28;20772;-68
2024/03/07 03:18:35;;;;;;;56.93;22.90;;;6.00;99.90;;;;;;5035011;28;20444;-69
2024/03/07 03:21:02;;;;;;;47.63;23.10;;;6.00;99.90;;;;;;5035561;28;20472;-68
2024/03/07 03:23:28;;;;;;;55.70;24.20;;;6.00;99.90;;;;;;5035818;28;20551;-68
2024/03/07 03:25:55;;;;;;;42.87;24.00;;;6.00;99.90;;;;;;5034702;28;20436;-70
2024/03/07 03:28:21;;;;;;;41.90;24.03;;;6.00;99.90;;;;;;5035739;28;20991;-67
2024/03/07 03:30:48;;;;;;;60.67;24.27;;;6.00;99.90;;;;;;5035388;28;20417;-69
2024/03/07 03:33:15;;;;;;;46.33;22.03;;;6.00;99.90;;;;;;5035031;28;20422;-68
2024/03/07 03:35:41;;;;;;;51.03;24.10;;;6.00;99.90;;;;;;5034149;28;20448;-68
2024/03/07 03:38:07;;;;;;;55.87;23.40;;;5.90;99.90;;;;;;5035846;28;20429;-68
2024/03/07 03:40:34;;;;;;;52.50;24.27;;;5.90;99.90;;;;;;5034953;28;20464;-69
2024/03/07 03:43:00;;;;;;;50.93;23.63;;;5.90;99.90;;;;;;5034791;28;20522;-69
2024/03/07 03:45:26;;;;;;;40.27;23.00;;;5.90;99.90;;;;;;5035547;28;20459;-68
2024/03/07 03:47:53;;;;;;;51.47;24.73;;;5.90;99.90;;;;;;5034796;28;20557;-67
2024/03/07 03:50:19;;;;;;;45.43;23.50;;;5.90;99.90;;;;;;5035224;28;20444;-67
2024/03/07 03:52:44;;;;;;;41.13;21.63;;;5.90;99.90;;;;;;5034013;28;20425;-69
2024/03/07 03:55:14;;;;;;;39.33;22.87;;;5.90;99.90;;;;;;5035235;28;20474;-68
2024/03/07 03:57:41;;;;;;;44.90;22.63;;;5.80;99.90;;;;;;5033672;28;20539;-69
2024/03/07 04:00:14;;;;;;;58.33;24.63;;;5.80;99.90;;;;;;5035534;28;21031;-68
2024/03/07 04:02:47;;;;;;;44.57;22.53;;;5.70;99.90;;;;;;5034628;28;20434;-68
2024/03/07 04:05:14;;;;;;;37.13;22.27;;;5.70;99.90;;;;;;5035673;28;21158;-68
2024/03/07 04:07:41;;;;;;;51.07;22.53;;;5.80;99.90;;;;;;5033937;28;20432;-69
2024/03/07 04:10:08;;;;;;;32.20;21.17;;;5.70;99.90;;;;;;5035411;28;20425;-69
2024/03/07 04:12:39;;;;;;;38.87;21.20;;;5.70;99.90;;;;;;5036223;28;20990;-67
2024/03/07 04:15:09;;;;;;;36.03;22.27;;;5.70;99.90;;;;;;5035014;28;20430;-69
2024/03/07 04:17:36;;;;;;;38.17;21.93;;;5.70;99.90;;;;;;5035136;28;20450;-69
2024/03/07 04:20:06;;;;;;;30.70;21.20;;;5.70;99.90;;;;;;5035971;28;20563;-68
2024/03/07 04:22:35;;;;;;;31.43;20.50;;;5.60;99.90;;;;;;5035611;28;20994;-68
2024/03/07 04:25:02;;;;;;;34.67;21.67;;;5.60;99.90;;;;;;5034102;28;20429;-68
2024/03/07 04:27:28;;;;;;;32.63;22.63;;;5.60;99.90;;;;;;5036189;28;20456;-69
2024/03/07 04:29:54;;;;;;;44.60;22.87;;;5.60;99.90;;;;;;5036089;28;21021;-69
2024/03/07 04:32:21;;;;;;;35.27;20.77;;;5.50;99.90;;;;;;5035111;28;20432;-69
2024/03/07 04:34:47;;;;;;;37.17;21.50;;;5.50;99.90;;;;;;5035541;28;20185;-69
2024/03/07 04:37:12;;;;;;;30.43;19.80;;;5.50;99.90;;;;;;5035504;28;21010;-69
2024/03/07 04:39:39;;;;;;;28.23;19.77;;;5.50;99.90;;;;;;5034979;28;20680;-67
2024/03/07 04:42:06;;;;;;;28.33;20.07;;;5.50;99.90;;;;;;5034791;28;20193;-67
2024/03/07 04:44:33;;;;;;;25.03;19.53;;;5.40;99.90;;;;;;5035981;28;20830;-67
2024/03/07 04:47:00;;;;;;;25.83;19.67;;;5.40;99.90;;;;;;5035017;28;20471;-68
2024/03/07 04:49:28;;;;;;;32.07;21.57;;;5.40;99.90;;;;;;5035135;28;20528;-68
2024/03/07 04:51:55;;;;;;;36.67;25.33;;;5.40;99.90;;;;;;5034534;28;21115;-69
2024/03/07 04:54:22;;;;;;;37.03;24.93;;;5.40;99.90;;;;;;5035200;28;20436;-68
2024/03/07 04:56:49;;;;;;;39.07;25.77;;;5.40;99.90;;;;;;5034541;28;21055;-67
2024/03/07 04:59:16;;;;;;;40.93;25.50;;;5.40;99.90;;;;;;5034163;28;20437;-69
2024/03/07 05:01:43;;;;;;;38.43;24.30;;;5.40;99.90;;;;;;5034801;28;20424;-69
2024/03/07 05:04:09;;;;;;;40.17;25.73;;;5.40;99.90;;;;;;5035262;28;20433;-67
2024/03/07 05:06:35;;;;;;;36.97;25.10;;;5.50;99.90;;;;;;5034046;28;20425;-68
2024/03/07 05:09:03;;;;;;;37.37;25.00;;;5.50;99.90;;;;;;5035105;28;20436;-68
2024/03/07 05:11:29;;;;;;;38.33;24.60;;;5.50;99.90;;;;;;5035083;28;20433;-69
2024/03/07 05:13:55;;;;;;;33.30;24.20;;;5.60;99.90;;;;;;5034275;28;21242;-69
2024/03/07 05:16:21;;;;;;;38.73;24.43;;;5.60;99.90;;;;;;5033628;28;20494;-68
2024/03/07 05:18:46;;;;;;;34.47;23.67;;;5.50;99.90;;;;;;5034414;28;20286;-67
2024/03/07 05:23:57;;;;;;;35.87;22.90;;;5.60;99.90;;;;;;5034302;28;20204;-69
2024/03/07 05:26:24;;;;;;;34.90;23.53;;;5.60;99.90;;;;;;5035302;28;20439;-68
2024/03/07 05:28:49;;;;;;;37.80;24.50;;;5.60;99.90;;;;;;5032828;28;20912;-68
2024/03/07 05:31:17;;;;;;;34.33;22.70;;;5.60;99.90;;;;;;5035152;28;20484;-67
2024/03/07 05:33:44;;;;;;;32.10;22.40;;;5.50;99.90;;;;;;5034239;28;20190;-69
2024/03/07 05:36:15;;;;;;;39.03;24.57;;;5.60;99.90;;;;;;5034335;28;20437;-68
2024/03/07 05:38:45;;;;;;;34.20;23.17;;;5.50;99.90;;;;;;5033162;28;20424;-69
2024/03/07 05:41:12;;;;;;;29.33;22.50;;;5.50;99.90;;;;;;5033467;28;20586;-68
2024/03/07 05:43:38;;;;;;;36.03;22.90;;;5.50;99.90;;;;;;5034070;28;20432;-67
2024/03/07 05:46:06;;;;;;;37.27;24.50;;;5.50;99.90;;;;;;5034552;28;20515;-67
2024/03/07 05:48:33;;;;;;;34.90;23.17;;;5.50;99.90;;;;;;5032749;28;20502;-67
2024/03/07 05:50:59;;;;;;;35.97;21.90;;;5.50;99.90;;;;;;5025088;28;20556;-69
2024/03/07 05:53:25;;;;;;;38.00;24.03;;;5.50;99.90;;;;;;5028541;28;21141;-69
2024/03/07 05:55:51;;;;;;;33.53;22.47;;;5.50;99.90;;;;;;5032122;28;20462;-67
2024/03/07 05:58:17;;;;;;;32.97;22.93;;;5.40;99.90;;;;;;5033723;28;20437;-68
2024/03/07 06:00:51;;;;;;;36.20;23.13;;;5.40;99.90;;;;;;5034159;28;20241;-67
2024/03/07 06:03:20;;;;;;;31.17;21.77;;;5.40;99.90;;;;;;5037103;28;20251;-69
2024/03/07 06:05:50;;;;;;;28.37;20.43;;;5.30;99.90;;;;;;5037006;28;20444;-69
2024/03/07 06:08:19;;;;;;;31.20;22.03;;;5.30;99.90;;;;;;5036408;28;20464;-69
2024/03/07 06:10:45;;;;;;;28.90;20.50;;;5.30;99.90;;;;;;5036729;28;20449;-69
2024/03/07 06:13:13;;;;;;;30.80;20.67;;;5.30;99.90;;;;;;5036859;28;20444;-68
2024/03/07 06:15:39;;;;;;;21.80;17.63;;;5.20;99.90;;;;;;5039889;28;20949;-67
2024/03/07 06:18:07;;;;;;;23.13;17.77;;;5.20;99.90;;;;;;5040795;28;20435;-68
2024/03/07 06:20:34;;;;;;;21.70;17.43;;;5.10;99.90;;;;;;5037568;28;20471;-68
2024/03/07 06:23:04;;;;;;;20.80;16.33;;;5.00;99.90;;;;;;5037115;28;20441;-67
2024/03/07 06:25:50;;;;;;;22.27;18.40;;;5.00;99.90;;;;;;5036220;28;20925;-68
2024/03/07 06:28:16;;;;;;;22.70;17.27;;;5.00;99.90;;;;;;5038320;28;20960;-68
2024/03/07 06:30:45;;;;;;;27.13;20.37;;;4.90;99.90;;;;;;5039238;28;20919;-67
2024/03/07 06:33:11;;;;;;;25.03;18.97;;;4.90;99.90;;;;;;5040530;28;20444;-68
2024/03/07 06:35:38;;;;;;;22.90;18.20;;;4.90;99.90;;;;;;5039290;28;20443;-68
2024/03/07 06:38:08;;;;;;;22.13;16.67;;;4.80;99.90;;;;;;5040410;28;20443;-69
2024/03/07 06:40:34;;;;;;;20.93;16.60;;;4.80;99.90;;;;;;5039728;28;20463;-69
2024/03/07 06:43:02;;;;;;;30.20;21.27;;;4.80;99.90;;;;;;5040158;28;20490;-67
2024/03/07 06:45:29;;;;;;;23.80;16.90;;;4.80;99.90;;;;;;5039763;28;21275;-67
2024/03/07 06:47:55;;;;;;;22.60;17.20;;;4.70;99.90;;;;;;5040103;28;21327;-67
2024/03/07 06:50:21;;;;;;;24.40;18.80;;;4.70;99.90;;;;;;5040217;28;20540;-69
2024/03/07 06:52:47;;;;;;;26.53;20.53;;;4.70;99.90;;;;;;5039588;28;20437;-67
2024/03/07 06:55:17;;;;;;;37.43;22.77;;;4.70;99.90;;;;;;5040391;28;20436;-69
2024/03/07 06:57:43;;;;;;;29.47;21.50;;;4.80;99.90;;;;;;5039037;28;20499;-67
2024/03/07 07:00:14;;;;;;;29.87;21.27;;;4.70;99.90;;;;;;5040317;28;20527;-68
2024/03/07 07:02:40;;;;;;;31.50;20.93;;;4.90;99.90;;;;;;5039639;28;20801;-69
2024/03/07 07:05:15;;;;;;;33.73;22.50;;;4.90;99.90;;;;;;5039416;28;20782;-67
2024/03/07 07:07:44;;;;;;;31.87;21.93;;;5.00;99.90;;;;;;5037057;28;20449;-68
2024/03/07 07:10:23;;;;;;;34.97;23.00;;;5.00;99.90;;;;;;5039611;28;20464;-69
2024/03/07 07:12:49;;;;;;;35.80;23.40;;;5.10;99.90;;;;;;5039546;28;20436;-67
2024/03/07 07:15:18;;;;;;;35.97;23.93;;;5.10;99.90;;;;;;5037044;28;20513;-68
2024/03/07 07:17:48;;;;;;;35.87;22.23;;;5.20;99.90;;;;;;5034578;28;20471;-68
2024/03/07 07:20:18;;;;;;;31.47;23.20;;;5.20;99.90;;;;;;5035962;28;20471;-69
2024/03/07 07:22:46;;;;;;;38.67;25.47;;;5.30;99.90;;;;;;5034666;28;20793;-67
2024/03/07 07:25:15;;;;;;;34.50;24.03;;;5.30;99.90;;;;;;5035725;28;20429;-67
2024/03/07 07:27:51;;;;;;;32.87;22.90;;;5.40;99.90;;;;;;5031634;28;21218;-68
2024/03/07 07:30:19;;;;;;;32.90;23.50;;;5.50;99.90;;;;;;5031450;28;20448;-67
2024/03/07 07:32:45;;;;;;;37.07;24.17;;;5.60;99.90;;;;;;5035741;28;20425;-68
2024/03/07 07:35:12;;;;;;;36.80;24.63;;;5.60;99.90;;;;;;5034593;28;20445;-69
2024/03/07 07:37:48;;;;;;;37.67;25.20;;;5.80;99.90;;;;;;5034530;28;20432;-68
2024/03/07 07:40:18;;;;;;;37.60;22.70;;;5.80;99.90;;;;;;5033846;28;20468;-68
2024/03/07 07:42:47;;;;;;;37.60;24.87;;;5.90;99.90;;;;;;5029378;28;20451;-69
2024/03/07 07:45:14;;;;;;;33.50;22.97;;;6.10;99.90;;;;;;5032716;28;20452;-69
2024/03/07 07:47:44;;;;;;;36.80;25.00;;;6.10;99.90;;;;;;5033129;28;20483;-67
2024/03/07 07:50:17;;;;;;;33.20;24.37;;;6.30;99.90;;;;;;5032760;28;20990;-66
2024/03/07 07:52:44;;;;;;;33.87;24.10;;;6.30;99.90;;;;;;5033399;28;20448;-66
2024/03/07 07:55:14;;;;;;;37.93;24.23;;;6.30;99.90;;;;;;5034715;28;20514;-66
2024/03/07 07:57:48;;;;;;;35.03;23.33;;;6.40;99.90;;;;;;5035181;28;20569;-66
2024/03/07 08:00:22;;;;;;;36.13;23.73;;;6.50;99.90;;;;;;5034756;28;20463;-67
2024/03/07 08:03:02;;;;;;;35.53;24.00;;;6.70;99.90;;;;;;5033677;28;20443;-66
2024/03/07 08:05:29;;;;;;;35.63;24.47;;;6.90;99.90;;;;;;5034372;28;20520;-67
2024/03/07 08:07:57;;;;;;;36.23;24.30;;;7.00;99.90;;;;;;5036059;28;20867;-66
2024/03/07 08:10:26;;;;;;;33.40;22.70;;;7.20;99.90;;;;;;5033099;28;20857;-66
2024/03/07 08:12:52;;;;;;;34.07;23.00;;;7.40;99.90;;;;;;5035564;28;20497;-66
2024/03/07 08:15:19;;;;;;;35.20;22.30;;;7.50;99.90;;;;;;5034334;28;20595;-66
2024/03/07 08:17:46;;;;;;;30.07;21.10;;;7.60;99.90;;;;;;5035743;28;20478;-66
2024/03/07 08:20:18;;;;;;;29.57;22.17;;;7.80;99.90;;;;;;5034650;28;20465;-67
2024/03/07 08:22:44;;;;;;;33.37;23.20;;;7.90;99.90;;;;;;5034505;28;20448;-66
2024/03/07 08:25:12;;;;;;;32.90;22.20;;;7.90;99.90;;;;;;5035288;28;20429;-66
2024/03/07 08:27:43;;;;;;;36.00;20.07;;;8.00;99.90;;;;;;5034431;28;20471;-67
2024/03/07 08:30:13;;;;;;;29.00;19.80;;;8.00;99.90;;;;;;5034907;28;20499;-67
2024/03/07 08:32:41;;;;;;;29.97;21.17;;;8.00;99.90;;;;;;5034301;28;20456;-66
2024/03/07 08:35:09;;;;;;;32.73;21.33;;;7.90;99.90;;;;;;5034582;28;21260;-66
2024/03/07 08:37:42;;;;;;;30.73;22.03;;;7.80;99.90;;;;;;5034045;28;20456;-66
2024/03/07 08:40:18;;;;;;;35.63;22.80;;;7.80;99.90;;;;;;5034782;28;20588;-67
2024/03/07 08:42:45;;;;;;;28.33;19.93;;;7.80;99.90;;;;;;5034933;28;20428;-67
2024/03/07 08:45:11;;;;;;;30.07;20.43;;;7.70;99.90;;;;;;5034625;28;21143;-67
2024/03/07 08:47:37;;;;;;;30.17;20.10;;;7.70;99.90;;;;;;5034579;28;20445;-66
2024/03/07 08:50:08;;;;;;;31.50;22.70;;;7.70;99.90;;;;;;5033854;28;20598;-66
2024/03/07 08:52:36;;;;;;;27.23;21.00;;;7.70;99.90;;;;;;5033372;28;21009;-66
2024/03/07 08:55:03;;;;;;;32.20;21.77;;;7.70;99.90;;;;;;5034433;28;21405;-66
2024/03/07 08:57:30;;;;;;;33.13;22.53;;;7.60;99.90;;;;;;5033421;28;20450;-66
2024/03/07 08:59:56;;;;;;;32.30;21.63;;;7.60;99.90;;;;;;5034604;28;20876;-66
2024/03/07 09:02:22;;;;;;;33.50;22.20;;;7.50;99.90;;;;;;5033599;28;20433;-66
2024/03/07 09:04:48;;;;;;;27.60;20.33;;;7.60;99.90;;;;;;5034294;28;21252;-67
2024/03/07 09:07:17;;;;;;;32.10;21.13;;;7.50;99.90;;;;;;5032598;28;20848;-67
2024/03/07 09:09:45;;;;;;;33.00;21.73;;;7.50;99.90;;;;;;5033939;28;20499;-67
2024/03/07 09:12:11;;;;;;;28.70;20.23;;;7.50;99.90;;;;;;5034323;28;20525;-67
2024/03/07 09:14:37;;;;;;;29.80;20.00;;;7.60;99.90;;;;;;5034114;28;20536;-67
2024/03/07 09:17:04;;;;;;;32.10;22.60;;;7.50;99.90;;;;;;5033329;28;20436;-66
2024/03/07 09:19:30;;;;;;;30.07;21.00;;;7.50;99.90;;;;;;5032893;28;20445;-67
2024/03/07 09:21:56;;;;;;;30.27;20.00;;;7.60;99.90;;;;;;5034610;28;20443;-67
2024/03/07 09:24:22;;;;;;;30.40;20.93;;;7.60;99.90;;;;;;5033241;28;20433;-67
2024/03/07 09:26:51;;;;;;;27.80;21.17;;;7.70;99.90;;;;;;5033229;28;20206;-67
2024/03/07 09:29:19;;;;;;;30.37;22.73;;;7.70;99.90;;;;;;5032690;28;20814;-67
2024/03/07 09:31:46;;;;;;;30.27;22.17;;;7.70;99.90;;;;;;5032272;28;20486;-67
2024/03/07 09:34:12;;;;;;;28.00;20.83;;;7.80;99.90;;;;;;5033318;28;20551;-67
2024/03/07 09:36:40;;;;;;;29.63;20.97;;;7.90;99.90;;;;;;5034134;28;20886;-67
2024/03/07 09:39:08;;;;;;;30.57;21.30;;;8.00;99.90;;;;;;5031750;28;20447;-67
2024/03/07 09:41:34;;;;;;;26.27;20.03;;;8.10;99.90;;;;;;5032283;28;20460;-67
2024/03/07 09:44:01;;;;;;;29.40;20.17;;;8.10;99.90;;;;;;5034076;28;20440;-67
2024/03/07 09:46:27;;;;;;;30.37;21.40;;;8.10;99.90;;;;;;5033026;28;20243;-67
2024/03/07 09:48:54;;;;;;;28.90;20.47;;;8.20;99.90;;;;;;5033165;28;20449;-67
2024/03/07 09:51:23;;;;;;;23.80;18.27;;;8.20;99.90;;;;;;5031878;28;20520;-67
2024/03/07 09:53:51;;;;;;;28.33;20.40;;;8.20;99.90;;;;;;5033340;28;20465;-67
2024/03/07 09:56:21;;;;;;;28.60;19.10;;;8.30;99.90;;;;;;5030926;28;20439;-67
2024/03/07 09:58:51;;;;;;;24.43;17.33;;;8.40;99.90;;;;;;5033304;28;20670;-67
2024/03/07 10:01:20;;;;;;;30.90;20.77;;;8.50;99.90;;;;;;5031909;28;20470;-67
2024/03/07 10:03:47;;;;;;;24.23;18.10;;;8.50;99.90;;;;;;5034258;28;20428;-67
2024/03/07 10:06:14;;;;;;;25.50;18.20;;;8.60;99.90;;;;;;5032874;28;20433;-68
2024/03/07 10:08:42;;;;;;;24.43;17.83;;;8.60;99.90;;;;;;5032773;28;20471;-67
2024/03/07 10:11:09;;;;;;;24.77;18.13;;;8.70;99.90;;;;;;5033019;28;20463;-67
2024/03/07 10:13:37;;;;;;;27.20;18.80;;;8.70;99.90;;;;;;5031891;28;20516;-67
2024/03/07 10:16:04;;;;;;;26.20;18.10;;;8.80;99.90;;;;;;5032778;28;20433;-67
2024/03/07 10:18:31;;;;;;;23.53;17.47;;;8.80;99.90;;;;;;5032020;28;20441;-67
2024/03/07 10:20:58;;;;;;;24.13;18.13;;;8.80;99.90;;;;;;5033254;28;20524;-67
2024/03/07 10:23:24;;;;;;;25.93;17.93;;;8.90;99.90;;;;;;5031464;28;21157;-67
2024/03/07 10:25:50;;;;;;;26.03;17.50;;;8.90;99.90;;;;;;5033413;28;20443;-67
2024/03/07 10:28:17;;;;;;;21.90;17.60;;;9.00;99.90;;;;;;5031823;28;20432;-66
2024/03/07 10:30:47;;;;;;;23.30;17.20;;;9.00;99.90;;;;;;5033352;28;20511;-67
2024/03/07 10:33:13;;;;;;;23.50;17.10;;;9.10;99.90;;;;;;5032901;28;20871;-67
2024/03/07 10:35:39;;;;;;;22.33;17.40;;;9.20;99.90;;;;;;5047898;28;20432;-67
2024/03/07 10:38:07;;;;;;;23.03;18.07;;;9.30;99.90;;;;;;5032353;28;20464;-67
2024/03/07 10:40:37;;;;;;;22.93;17.33;;;9.50;99.90;;;;;;5032034;28;20572;-67
2024/03/07 10:43:09;;;;;;;22.97;16.40;;;9.70;99.90;;;;;;5033539;28;20440;-67
2024/03/07 10:45:46;;;;;;;23.37;17.30;;;9.80;99.90;;;;;;5032581;28;20430;-66
2024/03/07 10:48:13;;;;;;;26.60;18.50;;;9.90;99.90;;;;;;5030484;28;20443;-67
2024/03/07 10:51:05;;;;;;;23.33;17.87;;;10.00;99.90;;;;;;5034696;28;20428;-67
2024/03/07 10:53:57;;;;;;;26.17;18.60;;;10.10;99.90;;;;;;5036699;28;20977;-66
2024/03/07 10:56:48;;;;;;;21.17;16.93;;;10.10;99.90;;;;;;5035451;28;20476;-67
2024/03/07 10:59:20;;;;;;;21.23;16.27;;;10.20;99.90;;;;;;5035947;28;20433;-67
2024/03/07 11:02:16;;;;;;;22.57;18.80;;;10.30;99.90;;;;;;5036229;28;20439;-67
2024/03/07 11:04:42;;;;;;;24.90;17.67;;;10.50;99.90;;;;;;5036472;28;20428;-67
2024/03/07 11:07:10;;;;;;;21.00;17.17;;;10.70;99.90;;;;;;5035489;28;20530;-67
2024/03/07 11:09:37;;;;;;;23.20;16.70;;;10.90;99.90;;;;;;5035551;28;20429;-67
2024/03/07 11:12:04;;;;;;;21.87;16.73;;;11.00;99.90;;;;;;5035773;28;20471;-68
2024/03/07 11:14:31;;;;;;;22.70;18.10;;;11.10;99.90;;;;;;5035105;28;20436;-67
2024/03/07 11:16:58;;;;;;;22.17;17.20;;;11.30;99.90;;;;;;5034302;28;20797;-68
2024/03/07 11:19:29;;;;;;;22.00;16.90;;;11.40;99.90;;;;;;5031584;28;20437;-67
2024/03/07 11:21:56;;;;;;;23.57;17.40;;;11.50;99.90;;;;;;5033644;28;20447;-68
2024/03/07 11:24:30;;;;;;;20.87;17.30;;;11.70;99.90;;;;;;5032363;28;20429;-68
2024/03/07 11:26:57;;;;;;;21.67;17.53;;;11.80;99.90;;;;;;5034462;28;20432;-67
2024/03/07 11:29:56;;;;;;;20.40;16.40;;;11.90;99.90;;;;;;5034900;28;20441;-68
2024/03/07 11:32:22;;;;;;;21.00;17.37;;;12.00;99.90;;;;;;5035395;28;20421;-66
2024/03/07 11:34:50;;;;;;;24.57;18.33;;;12.00;99.90;;;;;;5036441;28;20831;-68
2024/03/07 11:37:46;;;;;;;22.10;18.10;;;12.10;99.90;;;;;;5034264;28;20868;-67
2024/03/07 11:40:18;;;;;;;23.37;18.17;;;12.10;99.90;;;;;;5035594;28;20465;-67
2024/03/07 11:42:48;;;;;;;19.23;16.63;;;12.10;99.90;;;;;;5036510;28;20946;-67
2024/03/07 11:45:24;;;;;;;21.00;17.10;;;12.20;99.90;;;;;;5035511;28;20448;-67
2024/03/07 11:47:57;;;;;;;20.07;17.27;;;12.30;99.90;;;;;;5034328;28;20532;-67
2024/03/07 11:50:25;;;;;;;26.40;18.30;;;12.30;99.90;;;;;;5036340;28;20864;-67
2024/03/07 11:52:54;;;;;;;18.83;15.80;;;12.50;99.90;;;;;;5036208;28;21121;-67
2024/03/07 11:55:23;;;;;;;20.20;17.20;;;12.60;99.90;;;;;;5034819;28;20445;-67
2024/03/07 11:57:52;;;;;;;24.50;16.90;;;12.80;99.90;;;;;;5035859;28;20436;-67
2024/03/07 12:00:19;;;;;;;24.90;17.87;;;12.80;99.90;;;;;;5035141;28;20467;-67
2024/03/07 12:02:48;;;;;;;21.27;16.73;;;12.80;99.90;;;;;;5035579;28;20428;-67
2024/03/07 12:05:15;;;;;;;19.30;17.20;;;12.80;99.90;;;;;;5035202;28;20592;-67
2024/03/07 12:07:42;;;;;;;22.07;18.60;;;12.60;99.90;;;;;;5035441;28;20623;-67
2024/03/07 12:10:10;;;;;;;25.50;18.40;;;12.40;99.90;;;;;;5035851;28;20578;-67
2024/03/07 12:12:39;;;;;;;22.57;17.97;;;12.20;99.90;;;;;;5035016;28;20492;-67
2024/03/07 12:15:20;;;;;;;21.63;17.80;;;12.00;99.90;;;;;;5033728;28;20685;-67
2024/03/07 12:17:49;;;;;;;22.60;17.90;;;11.90;99.90;;;;;;5034988;28;20432;-67
2024/03/07 12:20:24;;;;;;;20.30;16.90;;;11.70;99.90;;;;;;5034748;28;20819;-67
2024/03/07 12:22:53;;;;;;;21.93;18.07;;;11.60;99.90;;;;;;5035210;28;20421;-67
2024/03/07 12:25:21;;;;;;;20.80;16.30;;;11.50;99.90;;;;;;5035138;28;20476;-67
2024/03/07 12:28:00;;;;;;;21.57;17.03;;;11.50;99.90;;;;;;5035444;28;20436;-67
2024/03/07 12:30:27;;;;;;;20.53;16.43;;;11.50;99.90;;;;;;5034857;28;21011;-68
2024/03/07 12:32:53;;;;;;;21.33;16.73;;;11.30;99.90;;;;;;5035538;28;20439;-67
2024/03/07 12:35:19;;;;;;;18.77;16.77;;;11.30;99.90;;;;;;5035153;28;20534;-66
2024/03/07 12:37:46;;;;;;;20.10;17.37;;;11.20;99.90;;;;;;5035188;28;20443;-67
2024/03/07 12:40:19;;;;;;;24.20;17.57;;;11.10;99.90;;;;;;5034415;28;20264;-67
2024/03/07 12:42:48;;;;;;;22.37;17.33;;;11.00;99.90;;;;;;5035528;28;20515;-67